createdAt,value
2023-03-25T00:01:27.585Z,10.9
2023-03-25T00:01:55.000Z,10.5
2023-03-25T00:02:43.780Z,10.8
2023-03-25T00:03:46.000Z,10.8
2023-03-25T00:05:15.441Z,10.7
2023-03-25T00:06:31.384Z,10.6
2023-03-25T00:09:03.776Z,10.5
2023-03-25T00:10:37.970Z,10.5
2023-03-25T00:11:35.194Z,10.4
2023-03-25T00:12:50.655Z,10.4
2023-03-25T00:14:05.883Z,10.4
2023-03-25T00:15:09.000Z,10.3
2023-03-25T00:16:37.035Z,10.2
2023-03-25T00:17:53.480Z,10.2
2023-03-25T00:19:09.427Z,10.2
2023-03-25T00:20:25.864Z,10.2
2023-03-25T00:21:29.000Z,10.2
2023-03-25T00:22:58.261Z,10.2
2023-03-25T00:24:14.209Z,10.2
2023-03-25T00:25:30.656Z,10.1
2023-03-25T00:26:46.600Z,10
2023-03-25T00:28:02.796Z,10
2023-03-25T00:29:19.249Z,10
2023-03-25T00:30:22.000Z,10
2023-03-25T00:31:51.383Z,9.9
2023-03-25T00:32:53.000Z,9.9
2023-03-25T00:34:22.790Z,10
2023-03-25T00:36:15.854Z,10
2023-03-25T00:36:55.181Z,10
2023-03-25T00:38:11.628Z,10.1
2023-03-25T00:39:14.000Z,10.1
2023-03-25T00:40:30.000Z,10.1
2023-03-25T00:41:58.268Z,10.2
2023-03-25T00:43:13.229Z,10.2
2023-03-25T00:44:28.689Z,10.2
2023-03-25T00:45:44.893Z,10.2
2023-03-25T00:46:48.000Z,10.3
2023-03-25T00:48:31.829Z,10.3
2023-03-25T00:49:20.000Z,10.3
2023-03-25T00:50:49.420Z,10.3
2023-03-25T00:51:52.000Z,10.3
2023-03-25T00:53:09.000Z,10.4
2023-03-25T00:54:25.000Z,10.4
2023-03-25T00:55:54.461Z,10.5
2023-03-25T00:57:10.401Z,10.5
2023-03-25T00:58:13.000Z,10.6
2023-03-25T00:59:43.046Z,10.6
2023-03-25T01:00:59.238Z,10.6
2023-03-25T01:02:14.451Z,10.5
2023-03-25T01:03:17.000Z,10.5
2023-03-25T01:04:46.593Z,10.6
2023-03-25T01:06:03.044Z,10.6
2023-03-25T01:07:19.232Z,10.6
2023-03-25T01:09:08.876Z,10.6
2023-03-25T01:09:50.403Z,10.6
2023-03-25T01:11:06.598Z,10.6
2023-03-25T01:12:09.000Z,10.7
2023-03-25T01:14:11.703Z,10.7
2023-03-25T01:14:52.245Z,10.7
2023-03-25T01:16:08.685Z,10.7
2023-03-25T01:17:24.885Z,10.7
2023-03-25T01:18:28.000Z,10.8
2023-03-25T01:19:57.028Z,10.9
2023-03-25T01:21:00.000Z,10.9
2023-03-25T01:22:29.420Z,10.9
2023-03-25T01:22:58.000Z,11
2023-03-25T01:23:45.615Z,10.9
2023-03-25T01:25:01.811Z,10.9
2023-03-25T01:26:05.000Z,10.9
2023-03-25T01:27:34.452Z,11
2023-03-25T01:30:06.593Z,11
2023-03-25T01:31:09.000Z,11
2023-03-25T01:32:38.248Z,11.1
2023-03-25T01:33:54.443Z,11.1
2023-03-25T01:35:10.648Z,11.1
2023-03-25T01:36:26.841Z,11.1
2023-03-25T01:37:42.785Z,11.2
2023-03-25T01:39:55.519Z,11.2
2023-03-25T01:40:01.000Z,11.2
2023-03-25T01:41:29.667Z,11.1
2023-03-25T01:42:45.611Z,11.1
2023-03-25T01:43:48.000Z,11.1
2023-03-25T01:45:16.293Z,11.1
2023-03-25T01:46:19.000Z,11.2
2023-03-25T01:47:48.693Z,11.2
2023-03-25T01:49:04.888Z,11.2
2023-03-25T01:50:20.829Z,11.3
2023-03-25T01:51:24.000Z,11.3
2023-03-25T01:52:53.220Z,11.4
2023-03-25T01:54:09.672Z,11.3
2023-03-25T01:55:25.612Z,11.2
2023-03-25T01:55:53.000Z,11
2023-03-25T01:56:29.000Z,11.1
2023-03-25T01:57:58.003Z,11
2023-03-25T01:59:01.000Z,11.1
2023-03-25T02:00:30.697Z,11
2023-03-25T02:03:01.803Z,11
2023-03-25T02:04:33.401Z,11
2023-03-25T02:05:21.000Z,10.9
2023-03-25T02:06:37.000Z,10.9
2023-03-25T02:08:06.587Z,10.9
2023-03-25T02:09:23.030Z,10.9
2023-03-25T02:10:38.005Z,10.9
2023-03-25T02:11:40.000Z,10.9
2023-03-25T02:13:08.440Z,10.8
2023-03-25T02:14:23.900Z,10.9
2023-03-25T02:15:27.000Z,10.8
2023-03-25T02:16:56.298Z,10.8
2023-03-25T02:18:12.493Z,10.9
2023-03-25T02:19:15.000Z,10.9
2023-03-25T02:20:44.629Z,10.9
2023-03-25T02:22:01.074Z,11
2023-03-25T02:23:17.274Z,11
2023-03-25T02:24:20.000Z,11
2023-03-25T02:25:49.414Z,11
2023-03-25T02:27:05.857Z,11
2023-03-25T02:28:09.000Z,11.1
2023-03-25T02:30:13.269Z,11.1
2023-03-25T02:30:53.213Z,11.1
2023-03-25T02:32:08.682Z,11.1
2023-03-25T02:33:24.626Z,11.1
2023-03-25T02:34:41.077Z,11.1
2023-03-25T02:35:57.017Z,11.1
2023-03-25T02:37:00.000Z,11.1
2023-03-25T02:38:29.656Z,11.1
2023-03-25T02:39:44.630Z,11.1
2023-03-25T02:40:59.842Z,11.1
2023-03-25T02:42:16.038Z,11.1
2023-03-25T02:43:19.000Z,11
2023-03-25T02:44:35.000Z,11.1
2023-03-25T02:46:04.879Z,11.1
2023-03-25T02:47:08.000Z,11.2
2023-03-25T02:48:37.017Z,11.2
2023-03-25T02:49:53.456Z,11.2
2023-03-25T02:51:09.663Z,11.2
2023-03-25T02:52:25.862Z,11.2
2023-03-25T02:53:29.000Z,11.2
2023-03-25T02:54:09.000Z,11.2
2023-03-25T02:54:58.238Z,11.2
2023-03-25T02:56:14.193Z,11.3
2023-03-25T02:57:29.647Z,11.2
2023-03-25T02:58:45.870Z,11.1
2023-03-25T03:01:18.238Z,11.2
2023-03-25T03:03:06.282Z,11.2
2023-03-25T03:03:37.000Z,11.1
2023-03-25T03:04:53.000Z,11.1
2023-03-25T03:06:22.048Z,11.1
2023-03-25T03:07:24.000Z,11.2
2023-03-25T03:08:52.485Z,11.2
2023-03-25T03:10:08.678Z,11.1
2023-03-25T03:11:44.695Z,11.2
2023-03-25T03:12:27.000Z,11.1
2023-03-25T03:13:56.038Z,11.1
2023-03-25T03:15:12.233Z,11.1
2023-03-25T03:16:28.675Z,11.2
2023-03-25T03:17:31.000Z,11.2
2023-03-25T03:19:01.063Z,11.2
2023-03-25T03:19:29.000Z,11.1
2023-03-25T03:20:04.000Z,11.1
2023-03-25T03:21:33.458Z,11.1
2023-03-25T03:22:49.409Z,11.1
2023-03-25T03:24:05.849Z,11.1
2023-03-25T03:26:38.240Z,11.1
2023-03-25T03:28:44.173Z,10.9
2023-03-25T03:28:56.000Z,10.9
2023-03-25T03:30:25.855Z,10.9
2023-03-25T03:31:29.000Z,10.9
2023-03-25T03:32:58.246Z,10.9
2023-03-25T03:34:14.442Z,10.9
2023-03-25T03:35:29.411Z,10.9
2023-03-25T03:35:55.000Z,10.9
2023-03-25T03:36:45.607Z,10.9
2023-03-25T03:38:58.731Z,11
2023-03-25T03:39:16.294Z,10.9
2023-03-25T03:40:19.000Z,11
2023-03-25T03:43:03.646Z,10.9
2023-03-25T03:44:19.842Z,10.9
2023-03-25T03:45:23.000Z,11
2023-03-25T03:46:52.487Z,10.8
2023-03-25T03:48:08.429Z,10.7
2023-03-25T03:49:11.000Z,10.7
2023-03-25T03:50:41.066Z,10.7
2023-03-25T03:51:57.016Z,10.7
2023-03-25T03:53:24.040Z,10.6
2023-03-25T03:54:29.408Z,10.7
2023-03-25T03:55:45.849Z,10.6
2023-03-25T03:57:01.800Z,10.6
2023-03-25T03:58:17.262Z,10.6
2023-03-25T03:59:20.000Z,10.6
2023-03-25T04:00:36.000Z,10.6
2023-03-25T04:01:52.000Z,10.6
2023-03-25T04:03:09.000Z,10.7
2023-03-25T04:05:12.762Z,10.7
2023-03-25T04:05:53.462Z,10.8
2023-03-25T04:07:08.680Z,10.7
2023-03-25T04:08:24.871Z,10.7
2023-03-25T04:09:40.088Z,10.7
2023-03-25T04:10:56.280Z,10.7
2023-03-25T04:12:11.493Z,10.7
2023-03-25T04:13:27.698Z,10.6
2023-03-25T04:14:43.644Z,10.6
2023-03-25T04:15:47.000Z,10.5
2023-03-25T04:17:16.035Z,10.5
2023-03-25T04:18:19.000Z,10.4
2023-03-25T04:19:48.427Z,10.4
2023-03-25T04:21:04.861Z,10.4
2023-03-25T04:22:21.070Z,10.5
2023-03-25T04:23:37.014Z,10.5
2023-03-25T04:24:53.452Z,10.5
2023-03-25T04:26:16.060Z,10.5
2023-03-25T04:27:25.598Z,10.4
2023-03-25T04:28:42.035Z,10.4
2023-03-25T04:29:44.000Z,10.4
2023-03-25T04:31:00.000Z,10.4
2023-03-25T04:32:29.632Z,10.5
2023-03-25T04:33:32.000Z,10.5
2023-03-25T04:34:48.000Z,10.6
2023-03-25T04:36:04.000Z,10.5
2023-03-25T04:37:33.436Z,10.5
2023-03-25T04:38:49.382Z,10.5
2023-03-25T04:40:04.603Z,10.6
2023-03-25T04:41:19.813Z,10.6
2023-03-25T04:42:23.000Z,10.6
2023-03-25T04:43:05.000Z,10.6
2023-03-25T04:44:41.768Z,10.6
2023-03-25T04:45:08.394Z,10.6
2023-03-25T04:46:24.839Z,10.6
2023-03-25T04:47:41.060Z,10.6
2023-03-25T04:50:23.696Z,10.6
2023-03-25T04:51:29.605Z,10.6
2023-03-25T04:52:45.802Z,10.6
2023-03-25T04:53:48.000Z,10.6
2023-03-25T04:55:18.193Z,10.6
2023-03-25T04:56:21.000Z,10.6
2023-03-25T04:57:36.000Z,10.6
2023-03-25T04:58:52.000Z,10.6
2023-03-25T05:00:21.979Z,10.6
2023-03-25T05:02:12.398Z,10.5
2023-03-25T05:02:54.370Z,10.5
2023-03-25T05:04:10.571Z,10.5
2023-03-25T05:05:26.510Z,10.4
2023-03-25T05:06:41.730Z,10.3
2023-03-25T05:07:44.000Z,10.3
2023-03-25T05:08:59.000Z,10.3
2023-03-25T05:10:27.620Z,10.3
2023-03-25T05:11:43.811Z,10.3
2023-03-25T05:12:12.000Z,10.2
2023-03-25T05:13:56.169Z,10.3
2023-03-25T05:14:03.000Z,10.3
2023-03-25T05:15:19.000Z,10.3
2023-03-25T05:16:35.000Z,10.3
2023-03-25T05:19:07.000Z,10.1
2023-03-25T05:20:37.168Z,10.2
2023-03-25T05:21:40.000Z,10.2
2023-03-25T05:22:56.000Z,10.2
2023-03-25T05:24:25.750Z,10.2
2023-03-25T05:25:41.938Z,10.2
2023-03-25T05:27:50.241Z,10.2
2023-03-25T05:28:13.097Z,10.2
2023-03-25T05:29:16.000Z,10.3
2023-03-25T05:30:32.000Z,10.3
2023-03-25T05:31:48.000Z,10.3
2023-03-25T05:33:18.122Z,10.4
2023-03-25T05:34:34.311Z,10.4
2023-03-25T05:35:49.286Z,10.4
2023-03-25T05:36:17.000Z,10.6
2023-03-25T05:37:04.495Z,10.5
2023-03-25T05:38:20.932Z,10.5
2023-03-25T05:39:37.125Z,10.6
2023-03-25T05:40:05.000Z,10.7
2023-03-25T05:40:53.330Z,10.6
2023-03-25T05:43:25.707Z,10.6
2023-03-25T05:44:41.904Z,10.7
2023-03-25T05:47:14.284Z,10.6
2023-03-25T05:48:30.239Z,10.7
2023-03-25T05:49:33.000Z,10.7
2023-03-25T05:50:49.000Z,10.7
2023-03-25T05:52:19.064Z,10.6
2023-03-25T05:53:21.000Z,10.7
2023-03-25T05:54:50.480Z,10.6
2023-03-25T05:56:06.693Z,10.7
2023-03-25T05:57:22.610Z,10.7
2023-03-25T05:58:39.046Z,10.7
2023-03-25T05:59:42.000Z,10.8
2023-03-25T06:01:11.190Z,10.9
2023-03-25T06:02:27.384Z,10.9
2023-03-25T06:03:42.850Z,11
2023-03-25T06:04:45.000Z,11.1
2023-03-25T06:06:13.035Z,11
2023-03-25T06:07:15.000Z,11
2023-03-25T06:08:31.000Z,10.9
2023-03-25T06:09:47.000Z,10.9
2023-03-25T06:11:03.000Z,11
2023-03-25T06:12:32.294Z,11
2023-03-25T06:13:47.255Z,11
2023-03-25T06:14:50.000Z,11
2023-03-25T06:16:19.903Z,11
2023-03-25T06:17:35.836Z,11
2023-03-25T06:18:52.029Z,11
2023-03-25T06:19:55.000Z,11
2023-03-25T06:21:24.666Z,11.1
2023-03-25T06:22:27.000Z,11
2023-03-25T06:23:44.000Z,11
2023-03-25T06:25:12.997Z,11.2
2023-03-25T06:26:29.191Z,11.2
2023-03-25T06:27:45.384Z,11.2
2023-03-25T06:29:59.591Z,11.2
2023-03-25T06:30:03.000Z,11.2
2023-03-25T06:30:45.000Z,11.6
2023-03-25T06:31:33.234Z,11.2
2023-03-25T06:32:36.000Z,11.4
2023-03-25T06:34:05.368Z,11.4
2023-03-25T06:35:21.562Z,11.4
2023-03-25T06:38:41.942Z,11.7
2023-03-25T06:38:55.000Z,11.8
2023-03-25T06:40:24.629Z,11.8
2023-03-25T06:41:26.000Z,11.8
2023-03-25T06:42:56.039Z,11.8
2023-03-25T06:44:11.003Z,11.8
2023-03-25T06:45:27.196Z,11.8
2023-03-25T06:46:43.390Z,11.9
2023-03-25T06:47:58.604Z,12
2023-03-25T06:49:15.073Z,12
2023-03-25T06:50:31.237Z,12.1
2023-03-25T06:51:47.437Z,12.1
2023-03-25T06:52:50.000Z,12.2
2023-03-25T06:54:19.000Z,12.3
2023-03-25T06:55:36.016Z,12.3
2023-03-25T06:56:51.959Z,12.4
2023-03-25T06:58:13.010Z,12.4
2023-03-25T06:59:24.346Z,12.3
2023-03-25T07:00:27.000Z,12.2
2023-03-25T07:01:08.000Z,11.7
2023-03-25T07:01:56.972Z,12.2
2023-03-25T07:03:21.759Z,12.1
2023-03-25T07:04:28.376Z,12
2023-03-25T07:05:44.578Z,11.8
2023-03-25T07:08:15.745Z,11.5
2023-03-25T07:09:31.217Z,11.4
2023-03-25T07:11:28.969Z,11.4
2023-03-25T07:11:48.000Z,11.4
2023-03-25T07:13:17.579Z,11.4
2023-03-25T07:14:33.772Z,11.3
2023-03-25T07:15:37.000Z,11.4
2023-03-25T07:17:06.401Z,11.3
2023-03-25T07:18:22.596Z,11.3
2023-03-25T07:19:38.547Z,11.4
2023-03-25T07:20:54.740Z,11.5
2023-03-25T07:22:10.935Z,11.5
2023-03-25T07:23:27.380Z,11.5
2023-03-25T07:24:43.568Z,11.5
2023-03-25T07:25:46.000Z,11.5
2023-03-25T07:27:02.000Z,11.6
2023-03-25T07:28:30.919Z,11.7
2023-03-25T07:29:47.364Z,11.7
2023-03-25T07:31:03.306Z,11.7
2023-03-25T07:32:19.742Z,11.9
2023-03-25T07:33:22.000Z,12
2023-03-25T07:34:51.887Z,12
2023-03-25T07:36:08.081Z,12.1
2023-03-25T07:37:24.518Z,12
2023-03-25T07:38:39.740Z,12.1
2023-03-25T07:39:41.000Z,11.9
2023-03-25T07:41:09.925Z,11.7
2023-03-25T07:42:25.386Z,11.6
2023-03-25T07:43:28.000Z,11.3
2023-03-25T07:44:57.521Z,11
2023-03-25T07:46:10.000Z,10.9
2023-03-25T07:47:30.151Z,10.7
2023-03-25T07:48:46.347Z,10.6
2023-03-25T07:50:02.550Z,10.6
2023-03-25T07:51:18.737Z,10.5
2023-03-25T07:52:34.930Z,10.5
2023-03-25T07:54:37.446Z,10.4
2023-03-25T07:54:54.000Z,10.4
2023-03-25T07:56:10.000Z,10.4
2023-03-25T07:57:26.000Z,10.4
2023-03-25T07:59:45.210Z,10.3
2023-03-25T08:00:10.861Z,10.3
2023-03-25T08:01:27.309Z,10.3
2023-03-25T08:02:43.248Z,10.3
2023-03-25T08:04:54.959Z,10.3
2023-03-25T08:05:15.918Z,10.3
2023-03-25T08:06:19.013Z,10.2
2023-03-25T08:07:35.000Z,10.2
2023-03-25T08:09:04.471Z,10.1
2023-03-25T08:10:20.410Z,10.2
2023-03-25T08:11:36.853Z,10.2
2023-03-25T08:12:52.798Z,10.3
2023-03-25T08:14:08.992Z,10.5
2023-03-25T08:15:25.185Z,10.6
2023-03-25T08:16:40.650Z,10.8
2023-03-25T08:17:56.588Z,10.8
2023-03-25T08:19:12.782Z,10.8
2023-03-25T08:20:29.226Z,10.9
2023-03-25T08:21:32.000Z,10.9
2023-03-25T08:23:01.363Z,10.9
2023-03-25T08:23:30.000Z,11
2023-03-25T08:24:17.556Z,10.9
2023-03-25T08:25:33.750Z,10.9
2023-03-25T08:26:49.944Z,10.9
2023-03-25T08:27:53.000Z,11
2023-03-25T08:31:12.900Z,11
2023-03-25T08:31:54.718Z,11
2023-03-25T08:33:09.928Z,11
2023-03-25T08:34:26.121Z,11
2023-03-25T08:36:20.664Z,11.1
2023-03-25T08:36:45.000Z,11.2
2023-03-25T08:38:14.945Z,11.3
2023-03-25T08:39:30.895Z,11.5
2023-03-25T08:40:46.116Z,11.6
2023-03-25T08:42:01.572Z,11.7
2023-03-25T08:43:04.000Z,11.6
2023-03-25T08:44:19.000Z,11.7
2023-03-25T08:45:47.951Z,11.9
2023-03-25T08:47:04.144Z,11.9
2023-03-25T08:48:20.587Z,12.1
2023-03-25T08:49:23.000Z,12
2023-03-25T08:50:52.725Z,11.9
2023-03-25T08:52:13.179Z,11.8
2023-03-25T08:53:25.112Z,11.9
2023-03-25T08:54:28.000Z,11.9
2023-03-25T08:55:57.500Z,12
2023-03-25T08:57:00.000Z,12.2
2023-03-25T08:58:29.888Z,12.5
2023-03-25T08:59:33.000Z,12.7
2023-03-25T09:01:02.275Z,12.7
2023-03-25T09:02:04.000Z,12.8
2023-03-25T09:03:33.679Z,12.9
2023-03-25T09:04:49.873Z,13.2
2023-03-25T09:06:06.067Z,13.2
2023-03-25T09:07:22.260Z,13.1
2023-03-25T09:08:38.454Z,13.2
2023-03-25T09:09:41.000Z,13.4
2023-03-25T09:11:09.868Z,13.5
2023-03-25T09:12:12.000Z,13.2
2023-03-25T09:13:41.525Z,13.3
2023-03-25T09:14:57.465Z,13.6
2023-03-25T09:16:13.659Z,13.7
2023-03-25T09:17:17.000Z,14.1
2023-03-25T09:18:46.046Z,14.1
2023-03-25T09:19:48.000Z,14
2023-03-25T09:21:16.476Z,13.8
2023-03-25T09:22:19.000Z,13.9
2023-03-25T09:23:48.862Z,13.8
2023-03-25T09:24:52.000Z,13.8
2023-03-25T09:26:21.249Z,13.5
2023-03-25T09:27:37.443Z,13.6
2023-03-25T09:28:53.636Z,13.5
2023-03-25T09:29:57.000Z,13.7
2023-03-25T09:31:13.000Z,13.8
2023-03-25T09:32:29.000Z,13.6
2023-03-25T09:33:58.656Z,13.5
2023-03-25T09:35:01.000Z,13.7
2023-03-25T09:36:17.000Z,13.8
2023-03-25T09:37:46.263Z,13.8
2023-03-25T09:38:49.000Z,14
2023-03-25T09:40:18.641Z,14.2
2023-03-25T09:41:34.588Z,14.3
2023-03-25T09:42:50.781Z,14.2
2023-03-25T09:44:07.216Z,14.1
2023-03-25T09:45:10.000Z,14
2023-03-25T09:46:38.389Z,13.9
2023-03-25T09:47:53.849Z,14
2023-03-25T09:49:10.046Z,14
2023-03-25T09:50:25.013Z,14
2023-03-25T09:51:27.000Z,14.1
2023-03-25T09:52:43.000Z,14.2
2023-03-25T09:54:12.859Z,14.2
2023-03-25T09:55:29.059Z,14.1
2023-03-25T09:56:44.996Z,14.1
2023-03-25T09:58:58.111Z,14
2023-03-25T09:59:17.635Z,14.1
2023-03-25T10:01:02.483Z,14
2023-03-25T10:01:50.022Z,13.9
2023-03-25T10:03:06.212Z,13.9
2023-03-25T10:04:22.158Z,14
2023-03-25T10:06:12.231Z,14
2023-03-25T10:06:41.000Z,14
2023-03-25T10:07:56.000Z,13.8
2023-03-25T10:09:13.000Z,14.1
2023-03-25T10:11:19.996Z,14.3
2023-03-25T10:11:45.000Z,14.3
2023-03-25T10:13:01.000Z,14.4
2023-03-25T10:14:17.000Z,14.5
2023-03-25T10:15:47.169Z,14.5
2023-03-25T10:17:03.355Z,14.5
2023-03-25T10:18:05.000Z,14.6
2023-03-25T10:19:33.540Z,14.8
2023-03-25T10:20:48.760Z,14.8
2023-03-25T10:22:03.971Z,14.7
2023-03-25T10:23:07.000Z,14.4
2023-03-25T10:24:23.000Z,14.3
2023-03-25T10:25:52.795Z,14.3
2023-03-25T10:27:08.744Z,14.3
2023-03-25T10:28:25.187Z,14.5
2023-03-25T10:29:41.131Z,14.2
2023-03-25T10:30:57.570Z,14.1
2023-03-25T10:32:13.760Z,13.9
2023-03-25T10:33:29.711Z,13.7
2023-03-25T10:34:45.905Z,13.7
2023-03-25T10:36:02.098Z,13.7
2023-03-25T10:37:18.292Z,13.6
2023-03-25T10:38:20.000Z,13.5
2023-03-25T10:39:49.946Z,13.5
2023-03-25T10:40:53.000Z,13.5
2023-03-25T10:42:22.083Z,13.6
2023-03-25T10:43:25.000Z,13.6
2023-03-25T10:44:54.470Z,13.7
2023-03-25T10:45:57.000Z,13.7
2023-03-25T10:47:13.000Z,13.9
2023-03-25T10:48:42.322Z,14
2023-03-25T10:49:57.298Z,14.2
2023-03-25T10:51:12.752Z,14.1
2023-03-25T10:52:28.703Z,13.9
2023-03-25T10:53:32.000Z,13.9
2023-03-25T10:55:32.175Z,13.9
2023-03-25T10:56:17.537Z,14
2023-03-25T10:57:33.477Z,14.1
2023-03-25T10:58:36.000Z,14.1
2023-03-25T10:59:53.000Z,14.1
2023-03-25T11:01:22.301Z,14.2
2023-03-25T11:02:24.000Z,14.3
2023-03-25T11:03:40.000Z,14.5
2023-03-25T11:05:09.661Z,14.5
2023-03-25T11:06:13.000Z,14.6
2023-03-25T11:07:42.048Z,14.5
2023-03-25T11:08:58.241Z,14.6
2023-03-25T11:10:14.435Z,14.8
2023-03-25T11:11:30.628Z,14.8
2023-03-25T11:12:46.822Z,14.7
2023-03-25T11:13:50.000Z,14.5
2023-03-25T11:15:06.000Z,14.5
2023-03-25T11:16:22.000Z,14.7
2023-03-25T11:17:37.000Z,14.8
2023-03-25T11:19:06.081Z,14.9
2023-03-25T11:20:22.027Z,14.9
2023-03-25T11:21:25.000Z,14.9
2023-03-25T11:22:54.414Z,14.8
2023-03-25T11:24:10.608Z,14.8
2023-03-25T11:25:27.045Z,14.9
2023-03-25T11:26:43.247Z,14.8
2023-03-25T11:27:11.000Z,14.9
2023-03-25T11:27:59.189Z,14.6
2023-03-25T11:29:15.634Z,14.6
2023-03-25T11:30:31.821Z,14.8
2023-03-25T11:31:34.000Z,14.9
2023-03-25T11:34:07.000Z,14.9
2023-03-25T11:35:36.350Z,14.9
2023-03-25T11:36:51.559Z,14.9
2023-03-25T11:38:07.754Z,15
2023-03-25T11:39:11.000Z,14.9
2023-03-25T11:40:40.141Z,14.9
2023-03-25T11:42:21.986Z,14.8
2023-03-25T11:42:59.000Z,14.8
2023-03-25T11:44:27.747Z,14.7
2023-03-25T11:45:42.958Z,14.6
2023-03-25T11:47:25.783Z,14.5
2023-03-25T11:48:57.967Z,14.5
2023-03-25T11:49:30.565Z,14.5
2023-03-25T11:50:46.027Z,14.5
2023-03-25T11:52:32.527Z,14.4
2023-03-25T11:53:17.437Z,14.6
2023-03-25T11:54:19.000Z,14.6
2023-03-25T11:55:48.593Z,14.6
2023-03-25T11:57:04.786Z,14.8
2023-03-25T11:58:08.000Z,14.8
2023-03-25T11:59:24.000Z,15.1
2023-03-25T12:00:53.618Z,15.2
2023-03-25T12:01:22.000Z,15.2
2023-03-25T12:02:48.066Z,15.4
2023-03-25T12:03:12.000Z,15.6
2023-03-25T12:03:54.000Z,14.9
2023-03-25T12:04:41.947Z,15.7
2023-03-25T12:05:58.388Z,15.5
2023-03-25T12:08:30.528Z,14.9
2023-03-25T12:11:03.187Z,14.7
2023-03-25T12:13:05.578Z,14.6
2023-03-25T12:13:21.000Z,14.4
2023-03-25T12:14:37.000Z,14.3
2023-03-25T12:16:06.706Z,13.9
2023-03-25T12:18:14.327Z,13.8
2023-03-25T12:18:26.000Z,13.7
2023-03-25T12:19:41.000Z,13.6
2023-03-25T12:20:56.000Z,13.6
2023-03-25T12:22:25.717Z,13.7
2023-03-25T12:23:42.157Z,13.6
2023-03-25T12:25:23.514Z,13.8
2023-03-25T12:25:59.000Z,14
2023-03-25T12:26:41.000Z,14.5
2023-03-25T12:27:15.000Z,14.2
2023-03-25T12:28:31.000Z,14.5
2023-03-25T12:30:00.920Z,14.7
2023-03-25T12:31:17.362Z,14.7
2023-03-25T12:34:07.839Z,14.6
2023-03-25T12:34:52.000Z,14.6
2023-03-25T12:36:22.155Z,14.8
2023-03-25T12:37:38.329Z,14.8
2023-03-25T12:38:41.000Z,14.7
2023-03-25T12:40:10.469Z,14.7
2023-03-25T12:41:26.912Z,14.7
2023-03-25T12:42:42.121Z,14.8
2023-03-25T12:43:58.310Z,14.7
2023-03-25T12:45:01.000Z,14.7
2023-03-25T12:46:30.703Z,14.7
2023-03-25T12:47:33.000Z,14.9
2023-03-25T12:49:03.090Z,15
2023-03-25T12:50:06.000Z,14.8
2023-03-25T12:50:47.000Z,14.8
2023-03-25T12:51:22.000Z,14.7
2023-03-25T12:52:51.420Z,14.7
2023-03-25T12:53:54.000Z,14.7
2023-03-25T12:55:24.055Z,14.8
2023-03-25T12:57:56.194Z,15
2023-03-25T12:59:12.387Z,15.1
2023-03-25T13:00:14.000Z,15.1
2023-03-25T13:01:44.044Z,15.1
2023-03-25T13:03:28.179Z,14.9
2023-03-25T13:04:16.439Z,14.8
2023-03-25T13:05:31.407Z,14.6
2023-03-25T13:06:46.618Z,14.6
2023-03-25T13:07:49.000Z,14.7
2023-03-25T13:09:19.246Z,14.8
2023-03-25T13:10:22.000Z,14.9
2023-03-25T13:12:11.530Z,15
2023-03-25T13:13:07.585Z,15.2
2023-03-25T13:14:24.037Z,15.2
2023-03-25T13:15:40.224Z,15.2
2023-03-25T13:16:56.416Z,15.3
2023-03-25T13:18:09.000Z,15.3
2023-03-25T13:19:28.554Z,15.3
2023-03-25T13:20:44.999Z,15.5
2023-03-25T13:22:01.198Z,15.7
2023-03-25T13:23:03.000Z,15.8
2023-03-25T13:24:32.344Z,15.9
2023-03-25T13:25:48.782Z,16
2023-03-25T13:27:04.977Z,15.9
2023-03-25T13:28:20.924Z,16.2
2023-03-25T13:29:37.118Z,16.4
2023-03-25T13:30:40.000Z,16.4
2023-03-25T13:32:45.565Z,16.3
2023-03-25T13:33:23.992Z,16.5
2023-03-25T13:34:39.935Z,16.5
2023-03-25T13:35:56.372Z,16.5
2023-03-25T13:37:12.569Z,16.3
2023-03-25T13:38:14.000Z,16.4
2023-03-25T13:39:42.752Z,16.4
2023-03-25T13:40:46.000Z,16.3
2023-03-25T13:42:15.138Z,16.3
2023-03-25T13:43:18.000Z,16.3
2023-03-25T13:44:47.525Z,16.2
2023-03-25T13:46:35.678Z,16
2023-03-25T13:47:19.912Z,15.8
2023-03-25T13:48:23.000Z,15.8
2023-03-25T13:49:52.299Z,16
2023-03-25T13:50:55.000Z,16
2023-03-25T13:52:11.000Z,15.9
2023-03-25T13:53:28.000Z,15.8
2023-03-25T13:54:57.321Z,15.8
2023-03-25T13:56:13.266Z,15.8
2023-03-25T13:57:28.475Z,15.8
2023-03-25T13:58:44.670Z,15.8
2023-03-25T14:00:00.865Z,15.7
2023-03-25T14:01:04.000Z,15.5
2023-03-25T14:02:33.507Z,15.3
2023-03-25T14:03:49.448Z,15.1
2023-03-25T14:05:37.529Z,15.1
2023-03-25T14:06:19.881Z,15.1
2023-03-25T14:07:35.349Z,15.1
2023-03-25T14:08:47.000Z,15.2
2023-03-25T14:10:06.509Z,15.2
2023-03-25T14:11:09.000Z,15.2
2023-03-25T14:12:38.899Z,15.2
2023-03-25T14:13:55.093Z,15
2023-03-25T14:14:58.000Z,14.7
2023-03-25T14:16:27.740Z,14.3
2023-03-25T14:17:43.927Z,13.8
2023-03-25T14:18:59.872Z,13.4
2023-03-25T14:20:16.068Z,13
2023-03-25T14:21:33.032Z,12.9
2023-03-25T14:22:48.458Z,12.9
2023-03-25T14:23:51.000Z,13.2
2023-03-25T14:25:20.848Z,13.2
2023-03-25T14:26:39.803Z,13.2
2023-03-25T14:28:12.993Z,13.3
2023-03-25T14:29:08.450Z,13.4
2023-03-25T14:30:24.646Z,13.4
2023-03-25T14:31:27.000Z,13.5
2023-03-25T14:32:57.036Z,13.5
2023-03-25T14:34:12.258Z,13.6
2023-03-25T14:35:27.470Z,13.7
2023-03-25T14:36:30.000Z,13.8
2023-03-25T14:38:25.573Z,13.7
2023-03-25T14:39:01.000Z,13.7
2023-03-25T14:40:30.543Z,13.7
2023-03-25T14:41:46.488Z,13.8
2023-03-25T14:43:02.684Z,14
2023-03-25T14:44:18.879Z,13.9
2023-03-25T14:45:35.320Z,13.9
2023-03-25T14:46:51.270Z,13.8
2023-03-25T14:48:07.723Z,13.6
2023-03-25T14:49:10.000Z,13.6
2023-03-25T14:50:39.857Z,13.6
2023-03-25T14:51:43.000Z,13.6
2023-03-25T14:53:12.248Z,13.6
2023-03-25T14:54:15.000Z,13.6
2023-03-25T14:55:44.891Z,13.7
2023-03-25T14:56:46.000Z,13.7
2023-03-25T14:58:03.000Z,13.7
2023-03-25T14:59:32.242Z,13.7
2023-03-25T15:00:48.438Z,13.7
2023-03-25T15:01:51.000Z,13.9
2023-03-25T15:03:07.000Z,13.8
2023-03-25T15:04:36.297Z,13.8
2023-03-25T15:05:52.246Z,13.9
2023-03-25T15:07:07.708Z,13.8
2023-03-25T15:08:22.679Z,13.8
2023-03-25T15:09:38.144Z,13.9
2023-03-25T15:10:54.086Z,13.9
2023-03-25T15:12:10.282Z,13.8
2023-03-25T15:13:13.000Z,14
2023-03-25T15:14:42.673Z,14.1
2023-03-25T15:15:58.869Z,14.4
2023-03-25T15:17:14.333Z,14.6
2023-03-25T15:18:17.000Z,14.7
2023-03-25T15:19:46.476Z,14.5
2023-03-25T15:21:02.672Z,14.3
2023-03-25T15:22:18.867Z,14.4
2023-03-25T15:23:35.063Z,14.3
2023-03-25T15:24:51.258Z,14.4
2023-03-25T15:26:07.454Z,14.5
2023-03-25T15:27:10.000Z,14.7
2023-03-25T15:28:40.092Z,14.7
2023-03-25T15:29:56.283Z,14.6
2023-03-25T15:31:12.236Z,14.6
2023-03-25T15:32:28.431Z,14.4
2023-03-25T15:33:44.627Z,14.4
2023-03-25T15:34:59.848Z,14.6
2023-03-25T15:36:15.060Z,14.7
2023-03-25T15:37:31.254Z,14.7
2023-03-25T15:38:47.450Z,14.6
2023-03-25T15:40:35.006Z,14.6
2023-03-25T15:41:20.083Z,14.6
2023-03-25T15:42:23.000Z,14.6
2023-03-25T15:43:52.232Z,14.5
2023-03-25T15:44:55.000Z,14.5
2023-03-25T15:46:24.873Z,14.5
2023-03-25T15:47:41.064Z,14.5
2023-03-25T15:48:57.258Z,14.6
2023-03-25T15:50:13.210Z,14.8
2023-03-25T15:51:29.658Z,14.9
2023-03-25T15:52:44.861Z,15
2023-03-25T15:53:47.000Z,14.8
2023-03-25T15:56:01.289Z,14.9
2023-03-25T15:56:33.204Z,15
2023-03-25T15:57:49.647Z,14.9
2023-03-25T15:59:05.838Z,14.9
2023-03-25T16:00:08.000Z,14.9
2023-03-25T16:01:37.012Z,14.9
2023-03-25T16:02:52.223Z,15
2023-03-25T16:04:08.663Z,14.9
2023-03-25T16:05:11.000Z,14.7
2023-03-25T16:06:49.029Z,14.6
2023-03-25T16:07:57.245Z,14.7
2023-03-25T16:09:13.201Z,14.7
2023-03-25T16:10:29.396Z,14.7
2023-03-25T16:11:45.592Z,14.7
2023-03-25T16:13:02.038Z,14.5
2023-03-25T16:14:18.232Z,14.5
2023-03-25T16:15:36.350Z,14.4
2023-03-25T16:16:50.620Z,14.5
2023-03-25T16:18:06.817Z,14.4
2023-03-25T16:19:22.023Z,14.5
2023-03-25T16:20:43.121Z,14.6
2023-03-25T16:21:54.172Z,14.6
2023-03-25T16:23:10.367Z,14.6
2023-03-25T16:24:26.563Z,14.5
2023-03-25T16:25:42.758Z,14.6
2023-03-25T16:26:58.954Z,14.6
2023-03-25T16:28:14.175Z,14.6
2023-03-25T16:29:29.646Z,14.5
2023-03-25T16:30:44.855Z,14.6
2023-03-25T16:31:46.000Z,14.7
2023-03-25T16:33:15.285Z,14.7
2023-03-25T16:34:30.503Z,14.9
2023-03-25T16:35:46.448Z,14.9
2023-03-25T16:37:02.644Z,14.9
2023-03-25T16:38:05.000Z,14.9
2023-03-25T16:39:22.000Z,14.8
2023-03-25T16:40:51.472Z,14.8
2023-03-25T16:42:07.426Z,14.9
2023-03-25T16:43:23.860Z,15
2023-03-25T16:44:39.817Z,15
2023-03-25T16:45:56.254Z,15.1
2023-03-25T16:47:12.208Z,15.2
2023-03-25T16:48:15.000Z,15
2023-03-25T16:49:44.599Z,14.8
2023-03-25T16:50:46.000Z,14.7
2023-03-25T16:52:16.006Z,14.6
2023-03-25T16:53:32.454Z,14.6
2023-03-25T16:54:48.397Z,14.5
2023-03-25T16:56:04.592Z,14.6
2023-03-25T16:57:21.029Z,14.6
2023-03-25T16:58:24.000Z,14.7
2023-03-25T16:59:52.451Z,14.6